createdAt,value
2023-03-29T00:00:39.038Z,2.03
2023-03-29T00:03:08.497Z,1.90
2023-03-29T00:05:37.890Z,2.17
2023-03-29T00:08:14.531Z,1.67
2023-03-29T00:10:44.437Z,1.67
2023-03-29T00:13:13.692Z,1.60
2023-03-29T00:15:43.985Z,1.90
2023-03-29T00:18:13.278Z,1.77
2023-03-29T00:20:42.568Z,1.90
2023-03-29T00:23:14.577Z,2.10
2023-03-29T00:25:46.958Z,2.30
2023-03-29T00:28:16.651Z,2.08
2023-03-29T00:30:46.225Z,1.73
2023-03-29T00:33:15.544Z,2.03
2023-03-29T00:35:45.285Z,2.03
2023-03-29T00:38:17.207Z,1.70
2023-03-29T00:40:47.103Z,2.03
2023-03-29T00:43:17.246Z,2.30
2023-03-29T00:45:46.561Z,1.87
2023-03-29T00:48:16.396Z,1.93
2023-03-29T00:50:48.450Z,1.80
2023-03-29T00:53:21.652Z,1.90
2023-03-29T00:55:52.754Z,1.97
2023-03-29T00:58:26.424Z,2.20
2023-03-29T01:01:01.982Z,1.97
2023-03-29T01:03:34.129Z,1.80
2023-03-29T01:06:05.862Z,1.92
2023-03-29T01:08:40.247Z,2.03
2023-03-29T01:11:13.145Z,2.17
2023-03-29T01:13:44.872Z,2.07
2023-03-29T01:16:15.215Z,2.10
2023-03-29T01:18:47.121Z,2.23
2023-03-29T01:21:23.671Z,2.00
2023-03-29T01:24:07.340Z,2.00
2023-03-29T01:26:42.678Z,2.07
2023-03-29T01:29:17.906Z,2.20
2023-03-29T01:31:48.536Z,2.00
2023-03-29T01:34:22.150Z,2.50
2023-03-29T01:36:55.015Z,2.10
2023-03-29T01:42:00.070Z,2.00
2023-03-29T01:44:34.487Z,1.93
2023-03-29T01:47:09.502Z,2.20
2023-03-29T01:49:42.390Z,2.93
2023-03-29T01:52:16.096Z,2.40
2023-03-29T01:54:50.517Z,2.83
2023-03-29T01:57:22.715Z,2.60
2023-03-29T01:59:58.046Z,2.90
2023-03-29T02:02:29.667Z,2.53
2023-03-29T02:05:00.342Z,2.80
2023-03-29T02:07:37.509Z,2.78
2023-03-29T02:10:08.651Z,3.13
2023-03-29T02:12:38.289Z,3.50
2023-03-29T02:15:14.391Z,3.10
2023-03-29T02:17:44.328Z,3.30
2023-03-29T02:20:17.689Z,3.40
2023-03-29T02:22:50.828Z,3.40
2023-03-29T02:25:22.666Z,3.27
2023-03-29T02:27:52.379Z,2.75
2023-03-29T02:30:25.113Z,2.83
2023-03-29T02:32:56.878Z,3.03
2023-03-29T02:35:34.472Z,2.63
2023-03-29T02:38:05.322Z,2.60
2023-03-29T02:40:35.624Z,2.53
2023-03-29T02:43:07.355Z,2.42
2023-03-29T02:45:40.069Z,2.57
2023-03-29T02:48:11.908Z,2.63
2023-03-29T02:50:42.530Z,2.47
2023-03-29T02:53:14.320Z,2.77
2023-03-29T02:55:47.095Z,2.33
2023-03-29T02:58:17.257Z,3.13
2023-03-29T03:00:51.238Z,2.70
2023-03-29T03:03:21.024Z,2.70
2023-03-29T03:05:52.631Z,2.70
2023-03-29T03:08:22.364Z,2.60
2023-03-29T03:10:52.722Z,3.10
2023-03-29T03:13:22.416Z,2.67
2023-03-29T03:15:54.515Z,3.53
2023-03-29T03:18:24.406Z,3.03
2023-03-29T03:21:02.158Z,3.53
2023-03-29T03:23:32.226Z,2.80
2023-03-29T03:26:02.221Z,3.03
2023-03-29T03:28:33.364Z,3.33
2023-03-29T03:31:07.329Z,2.97
2023-03-29T03:34:00.191Z,3.30
2023-03-29T03:36:39.073Z,3.00
2023-03-29T03:39:08.626Z,3.40
2023-03-29T03:41:38.286Z,3.20
2023-03-29T03:44:08.277Z,3.20
2023-03-29T03:46:40.575Z,3.47
2023-03-29T03:49:10.075Z,3.70
2023-03-29T03:51:45.645Z,3.40
2023-03-29T03:54:16.488Z,3.60
2023-03-29T03:57:06.403Z,3.20
2023-03-29T03:59:43.627Z,4.33
2023-03-29T04:02:20.481Z,3.67
2023-03-29T04:04:50.244Z,3.13
2023-03-29T04:07:21.844Z,3.83
2023-03-29T04:09:53.859Z,3.92
2023-03-29T04:12:37.890Z,3.50
2023-03-29T04:15:10.596Z,3.27
2023-03-29T04:17:45.824Z,3.43
2023-03-29T04:20:37.350Z,3.93
2023-03-29T04:23:07.388Z,3.97
2023-03-29T04:25:38.618Z,3.87
2023-03-29T04:28:37.730Z,4.83
2023-03-29T04:31:13.380Z,4.30
2023-03-29T04:34:00.547Z,4.13
2023-03-29T04:36:30.578Z,4.30
2023-03-29T04:39:01.623Z,4.63
2023-03-29T04:41:32.806Z,4.55
2023-03-29T04:44:07.050Z,4.67
2023-03-29T04:46:38.986Z,4.07
2023-03-29T04:49:29.943Z,5.00
2023-03-29T04:52:01.004Z,4.85
2023-03-29T04:54:32.932Z,5.43
2023-03-29T04:57:08.916Z,4.57
2023-03-29T04:59:44.547Z,4.80
2023-03-29T05:02:46.359Z,5.17
2023-03-29T05:05:19.955Z,4.87
2023-03-29T05:07:50.963Z,5.17
2023-03-29T05:10:24.766Z,5.07
2023-03-29T05:12:56.299Z,4.73
2023-03-29T05:15:26.340Z,4.40
2023-03-29T05:17:55.714Z,4.87
2023-03-29T05:20:28.632Z,5.10
2023-03-29T05:22:59.884Z,5.30
2023-03-29T05:25:47.898Z,5.50
2023-03-29T05:28:17.456Z,4.40
2023-03-29T05:30:46.791Z,4.70
2023-03-29T05:33:23.762Z,5.33
2023-03-29T05:36:01.156Z,4.73
2023-03-29T05:38:32.952Z,4.67
2023-03-29T05:41:02.850Z,4.40
2023-03-29T05:43:51.008Z,4.63
2023-03-29T05:46:21.821Z,4.80
2023-03-29T05:48:55.034Z,5.37
2023-03-29T05:51:42.273Z,4.63
2023-03-29T05:54:11.687Z,4.40
2023-03-29T05:56:41.140Z,4.70
2023-03-29T05:59:11.487Z,4.60
2023-03-29T06:01:41.907Z,5.67
2023-03-29T06:04:13.538Z,5.28
2023-03-29T06:06:55.145Z,5.20
2023-03-29T06:09:25.844Z,5.13
2023-03-29T06:12:04.093Z,4.70
2023-03-29T06:14:53.974Z,4.87
2023-03-29T06:17:34.754Z,5.30
2023-03-29T06:20:05.441Z,5.10
2023-03-29T06:22:37.968Z,4.80
2023-03-29T06:25:07.856Z,5.30
2023-03-29T06:27:37.285Z,5.13
2023-03-29T06:30:07.370Z,5.07
2023-03-29T06:32:37.736Z,5.23
2023-03-29T06:35:18.702Z,5.10
2023-03-29T06:37:57.207Z,4.80
2023-03-29T06:40:39.337Z,5.23
2023-03-29T06:43:09.299Z,5.33
2023-03-29T06:46:12.337Z,4.10
2023-03-29T06:48:55.746Z,5.00
2023-03-29T06:51:27.750Z,4.27
2023-03-29T06:53:59.748Z,5.00
2023-03-29T06:56:30.021Z,4.60
2023-03-29T06:59:06.301Z,4.33
2023-03-29T07:01:47.368Z,4.80
2023-03-29T07:04:24.801Z,4.90
2023-03-29T07:07:20.280Z,4.90
2023-03-29T07:09:56.642Z,4.40
2023-03-29T07:12:46.318Z,4.80
2023-03-29T07:15:18.117Z,4.70
2023-03-29T07:18:06.780Z,4.30
2023-03-29T07:20:38.477Z,4.70
2023-03-29T07:23:09.619Z,5.20
2023-03-29T07:25:41.690Z,4.40
2023-03-29T07:28:11.354Z,4.82
2023-03-29T07:30:41.498Z,5.13
2023-03-29T07:33:14.951Z,4.80
2023-03-29T07:36:00.100Z,4.37
2023-03-29T07:38:30.333Z,4.43
2023-03-29T07:41:13.250Z,4.50
2023-03-29T07:43:52.004Z,4.20
2023-03-29T07:46:25.792Z,4.60
2023-03-29T07:48:56.837Z,4.90
2023-03-29T07:51:27.038Z,4.93
2023-03-29T07:54:05.593Z,4.97
2023-03-29T07:56:56.192Z,4.70
2023-03-29T07:59:32.925Z,4.73
2023-03-29T08:02:09.756Z,5.20
2023-03-29T08:04:42.203Z,4.50
2023-03-29T08:07:19.341Z,4.80
2023-03-29T08:10:09.868Z,4.40
2023-03-29T08:12:56.893Z,4.93
2023-03-29T08:15:35.949Z,4.37
2023-03-29T08:18:05.343Z,4.50
2023-03-29T08:20:35.134Z,4.80
2023-03-29T08:23:06.517Z,4.77
2023-03-29T08:25:54.004Z,4.57
2023-03-29T08:28:26.018Z,4.93
2023-03-29T08:30:55.551Z,5.28
2023-03-29T08:33:25.142Z,4.13
2023-03-29T08:36:04.992Z,4.47
2023-03-29T08:38:38.657Z,4.43
2023-03-29T08:41:13.994Z,4.47
2023-03-29T12:53:27.547Z,5.10
2023-03-29T12:55:58.649Z,4.53
2023-03-29T12:58:40.049Z,5.27
2023-03-29T13:01:10.320Z,5.30
2023-03-29T13:03:51.857Z,4.97
2023-03-29T13:06:30.373Z,4.87
2023-03-29T13:09:01.645Z,5.60
2023-03-29T13:11:34.814Z,4.63
2023-03-29T13:14:14.546Z,3.80
2023-03-29T13:16:44.227Z,3.87
2023-03-29T13:19:28.433Z,3.77
2023-03-29T13:22:02.795Z,3.60
2023-03-29T13:24:40.199Z,4.20
2023-03-29T13:40:49.366Z,4.17
2023-03-29T13:43:23.737Z,4.87
2023-03-29T13:59:40.393Z,5.93
2023-03-29T14:02:16.994Z,5.82
2023-03-29T14:04:48.788Z,5.40
2023-03-29T14:12:20.723Z,5.23
2023-03-29T14:14:58.880Z,5.20
2023-03-29T14:17:31.484Z,5.20
2023-03-29T14:20:01.929Z,4.90
2023-03-29T14:22:33.242Z,5.37
2023-03-29T14:38:03.912Z,5.60
2023-03-29T14:40:34.639Z,5.43
2023-03-29T14:43:07.280Z,5.00
2023-03-29T14:45:36.800Z,6.13
2023-03-29T14:48:10.376Z,5.30
2023-03-29T15:03:27.487Z,4.87
2023-03-29T15:06:00.019Z,5.07
2023-03-29T15:13:36.594Z,4.20
2023-03-29T15:16:08.261Z,4.40
2023-03-29T15:18:41.529Z,4.50
2023-03-29T15:21:12.123Z,4.87
2023-03-29T15:26:15.998Z,4.40
2023-03-29T15:46:38.431Z,6.03
2023-03-29T15:49:12.470Z,6.30
2023-03-29T15:51:42.013Z,6.27
2023-03-29T15:54:11.716Z,6.60
2023-03-29T15:56:44.151Z,6.20
2023-03-29T16:04:17.866Z,5.97
2023-03-29T16:06:48.701Z,6.57
2023-03-29T16:09:18.397Z,6.27
2023-03-29T16:11:48.270Z,6.80
2023-03-29T16:14:23.284Z,6.10
2023-03-29T16:16:52.928Z,6.97
2023-03-29T16:19:25.189Z,6.47
2023-03-29T16:21:55.107Z,7.13
2023-03-29T16:24:25.194Z,7.50
2023-03-29T16:26:56.083Z,7.00
2023-03-29T16:29:25.853Z,6.87
2023-03-29T16:34:28.474Z,7.83
2023-03-29T16:39:27.514Z,7.97
2023-03-29T16:41:56.904Z,7.60
2023-03-29T16:44:28.057Z,7.77
2023-03-29T16:46:58.191Z,8.07
2023-03-29T16:49:30.101Z,7.57
2023-03-29T16:51:59.901Z,7.38
2023-03-29T16:54:29.844Z,7.57
2023-03-29T16:56:59.292Z,7.23
2023-03-29T16:59:28.759Z,7.33
2023-03-29T17:01:58.124Z,8.33
2023-03-29T17:04:30.237Z,7.57
2023-03-29T17:06:59.659Z,8.10
2023-03-29T17:09:30.011Z,7.90
2023-03-29T17:11:59.442Z,8.87
2023-03-29T17:14:28.738Z,8.00
2023-03-29T17:16:58.086Z,8.20
2023-03-29T17:19:32.960Z,8.50
2023-03-29T17:22:02.325Z,8.43
2023-03-29T17:24:31.675Z,9.80
2023-03-29T17:27:01.158Z,9.07
2023-03-29T17:29:30.559Z,8.70
2023-03-29T19:32:18.927Z,11.43
2023-03-29T19:34:50.906Z,11.60
2023-03-29T19:37:20.355Z,12.10
2023-03-29T19:44:48.743Z,11.07
2023-03-29T19:47:18.171Z,12.20
2023-03-29T19:49:47.558Z,12.27
2023-03-29T20:44:54.079Z,9.30
2023-03-29T20:54:56.883Z,9.33
2023-03-29T21:02:28.783Z,8.00
2023-03-29T21:27:41.796Z,6.67
2023-03-29T21:50:15.111Z,6.73
2023-03-29T21:52:47.041Z,7.13
2023-03-29T22:45:24.980Z,6.57
2023-03-29T23:13:05.810Z,6.32
2023-03-29T23:15:35.117Z,7.13
2023-03-29T23:20:35.151Z,7.13
2023-03-29T23:23:07.012Z,6.10
2023-03-29T23:35:36.453Z,6.33
2023-03-29T23:40:38.107Z,6.55
2023-03-29T23:43:07.432Z,5.83
2023-03-29T23:45:38.652Z,5.93
2023-03-29T23:48:08.772Z,6.73
2023-03-29T23:53:10.753Z,6.83
2023-03-29T23:55:40.060Z,6.03
2023-03-29T23:58:09.470Z,7.07
